sensor_id;sensor_type;location;lat;lon;timestamp;temperature;humidity
70986;DHT22;58645;43.068;25.610;2022-09-28T00:01:20;13.80;99.90
70986;DHT22;58645;43.068;25.610;2022-09-28T00:03:47;13.80;99.90
70986;DHT22;58645;43.068;25.610;2022-09-28T00:06:15;13.80;99.90
70986;DHT22;58645;43.068;25.610;2022-09-28T00:08:41;13.80;99.90
70986;DHT22;58645;43.068;25.610;2022-09-28T00:11:10;13.80;99.90
70986;DHT22;58645;43.068;25.610;2022-09-28T00:13:38;13.70;99.90
70986;DHT22;58645;43.068;25.610;2022-09-28T00:16:16;13.70;99.90
70986;DHT22;58645;43.068;25.610;2022-09-28T00:18:43;13.70;99.90
70986;DHT22;58645;43.068;25.610;2022-09-28T00:23:36;13.70;99.90
70986;DHT22;58645;43.068;25.610;2022-09-28T00:26:21;13.60;99.90
70986;DHT22;58645;43.068;25.610;2022-09-28T00:28:53;13.60;99.90
70986;DHT22;58645;43.068;25.610;2022-09-28T00:31:21;13.60;99.90
70986;DHT22;58645;43.068;25.610;2022-09-28T00:33:52;13.60;99.90
70986;DHT22;58645;43.068;25.610;2022-09-28T00:36:18;13.60;99.90
70986;DHT22;58645;43.068;25.610;2022-09-28T00:38:44;13.60;99.90
70986;DHT22;58645;43.068;25.610;2022-09-28T00:41:10;13.50;99.90
70986;DHT22;58645;43.068;25.610;2022-09-28T00:43:36;13.50;99.90
70986;DHT22;58645;43.068;25.610;2022-09-28T00:48:37;13.40;99.90
70986;DHT22;58645;43.068;25.610;2022-09-28T00:51:08;13.40;99.90
70986;DHT22;58645;43.068;25.610;2022-09-28T00:53:37;13.40;99.90
70986;DHT22;58645;43.068;25.610;2022-09-28T00:56:09;13.30;99.90
70986;DHT22;58645;43.068;25.610;2022-09-28T00:58:45;13.30;99.90
70986;DHT22;58645;43.068;25.610;2022-09-28T01:01:11;13.30;99.90
70986;DHT22;58645;43.068;25.610;2022-09-28T01:03:38;13.40;99.90
70986;DHT22;58645;43.068;25.610;2022-09-28T01:06:14;13.30;99.90
70986;DHT22;58645;43.068;25.610;2022-09-28T01:08:41;13.40;99.90
70986;DHT22;58645;43.068;25.610;2022-09-28T01:11:09;13.30;99.90
70986;DHT22;58645;43.068;25.610;2022-09-28T01:13:35;13.30;99.90
70986;DHT22;58645;43.068;25.610;2022-09-28T01:18:46;13.30;99.90
70986;DHT22;58645;43.068;25.610;2022-09-28T01:21:19;13.30;99.90
70986;DHT22;58645;43.068;25.610;2022-09-28T01:31:50;13.20;99.90
70986;DHT22;58645;43.068;25.610;2022-09-28T01:34:27;13.10;99.90
70986;DHT22;58645;43.068;25.610;2022-09-28T01:36:57;13.10;99.90
70986;DHT22;58645;43.068;25.610;2022-09-28T01:39:29;13.10;99.90
70986;DHT22;58645;43.068;25.610;2022-09-28T01:42:02;13.10;99.90
70986;DHT22;58645;43.068;25.610;2022-09-28T01:44:31;13.10;99.90
70986;DHT22;58645;43.068;25.610;2022-09-28T01:47:02;13.00;99.90
70986;DHT22;58645;43.068;25.610;2022-09-28T01:49:36;13.00;99.90
70986;DHT22;58645;43.068;25.610;2022-09-28T01:52:09;13.00;99.90
70986;DHT22;58645;43.068;25.610;2022-09-28T01:54:36;12.90;99.90
70986;DHT22;58645;43.068;25.610;2022-09-28T01:57:50;12.90;99.90
70986;DHT22;58645;43.068;25.610;2022-09-28T02:00:19;12.90;99.90
70986;DHT22;58645;43.068;25.610;2022-09-28T02:02:56;13.00;99.90
70986;DHT22;58645;43.068;25.610;2022-09-28T02:05:29;12.90;99.90
70986;DHT22;58645;43.068;25.610;2022-09-28T02:10:50;12.90;99.90
70986;DHT22;58645;43.068;25.610;2022-09-28T02:13:31;12.80;99.90
70986;DHT22;58645;43.068;25.610;2022-09-28T02:16:03;12.80;99.90
70986;DHT22;58645;43.068;25.610;2022-09-28T02:18:30;12.80;99.90
70986;DHT22;58645;43.068;25.610;2022-09-28T02:23:51;12.80;99.90
70986;DHT22;58645;43.068;25.610;2022-09-28T02:26:23;12.80;99.90
70986;DHT22;58645;43.068;25.610;2022-09-28T02:28:51;12.80;99.90
70986;DHT22;58645;43.068;25.610;2022-09-28T02:31:17;12.70;99.90
70986;DHT22;58645;43.068;25.610;2022-09-28T02:33:44;12.60;99.90
70986;DHT22;58645;43.068;25.610;2022-09-28T02:36:10;12.60;99.90
70986;DHT22;58645;43.068;25.610;2022-09-28T02:38:37;12.60;99.90
70986;DHT22;58645;43.068;25.610;2022-09-28T02:41:10;12.60;99.90
70986;DHT22;58645;43.068;25.610;2022-09-28T02:46:31;12.60;99.90
70986;DHT22;58645;43.068;25.610;2022-09-28T02:51:56;12.60;99.90
70986;DHT22;58645;43.068;25.610;2022-09-28T03:00:16;12.60;99.90
70986;DHT22;58645;43.068;25.610;2022-09-28T03:07:00;12.60;99.90
70986;DHT22;58645;43.068;25.610;2022-09-28T03:11:36;12.60;99.90
70986;DHT22;58645;43.068;25.610;2022-09-28T03:14:05;12.60;99.90
70986;DHT22;58645;43.068;25.610;2022-09-28T03:16:31;12.50;99.90
70986;DHT22;58645;43.068;25.610;2022-09-28T03:18:57;12.40;99.90
70986;DHT22;58645;43.068;25.610;2022-09-28T03:21:23;12.40;99.90
70986;DHT22;58645;43.068;25.610;2022-09-28T03:23:48;12.30;99.90
70986;DHT22;58645;43.068;25.610;2022-09-28T03:26:14;12.30;99.90
70986;DHT22;58645;43.068;25.610;2022-09-28T03:28:41;12.30;99.90
70986;DHT22;58645;43.068;25.610;2022-09-28T03:31:07;12.40;99.90
70986;DHT22;58645;43.068;25.610;2022-09-28T03:33:33;12.30;99.90
70986;DHT22;58645;43.068;25.610;2022-09-28T03:35:59;12.30;99.90
70986;DHT22;58645;43.068;25.610;2022-09-28T03:38:25;12.20;99.90
70986;DHT22;58645;43.068;25.610;2022-09-28T03:40:56;12.20;99.90
70986;DHT22;58645;43.068;25.610;2022-09-28T03:43:22;12.20;99.90
70986;DHT22;58645;43.068;25.610;2022-09-28T03:45:55;12.10;99.90
70986;DHT22;58645;43.068;25.610;2022-09-28T03:48:26;12.10;99.90
70986;DHT22;58645;43.068;25.610;2022-09-28T03:50:56;12.00;99.90
70986;DHT22;58645;43.068;25.610;2022-09-28T03:53:23;12.00;99.90
70986;DHT22;58645;43.068;25.610;2022-09-28T03:55:49;12.00;99.90
70986;DHT22;58645;43.068;25.610;2022-09-28T03:58:16;11.90;99.90
70986;DHT22;58645;43.068;25.610;2022-09-28T04:00:42;11.90;99.90
70986;DHT22;58645;43.068;25.610;2022-09-28T04:03:07;11.90;99.90
70986;DHT22;58645;43.068;25.610;2022-09-28T04:05:33;11.90;99.90
70986;DHT22;58645;43.068;25.610;2022-09-28T04:07:59;11.90;99.90
70986;DHT22;58645;43.068;25.610;2022-09-28T04:10:25;11.90;99.90
70986;DHT22;58645;43.068;25.610;2022-09-28T04:12:55;11.80;99.90
70986;DHT22;58645;43.068;25.610;2022-09-28T04:15:22;11.80;99.90
70986;DHT22;58645;43.068;25.610;2022-09-28T04:17:49;11.80;99.90
70986;DHT22;58645;43.068;25.610;2022-09-28T04:20:15;11.80;99.90
70986;DHT22;58645;43.068;25.610;2022-09-28T04:22:41;11.80;99.90
70986;DHT22;58645;43.068;25.610;2022-09-28T04:25:07;11.70;99.90
70986;DHT22;58645;43.068;25.610;2022-09-28T04:27:33;11.70;99.90
70986;DHT22;58645;43.068;25.610;2022-09-28T04:30:18;11.80;99.90
70986;DHT22;58645;43.068;25.610;2022-09-28T04:32:46;11.80;99.90
70986;DHT22;58645;43.068;25.610;2022-09-28T04:35:12;11.80;99.90
70986;DHT22;58645;43.068;25.610;2022-09-28T04:37:38;11.90;99.90
70986;DHT22;58645;43.068;25.610;2022-09-28T04:40:05;11.80;99.90
70986;DHT22;58645;43.068;25.610;2022-09-28T04:42:31;11.80;99.90
70986;DHT22;58645;43.068;25.610;2022-09-28T04:45:05;11.70;99.90
70986;DHT22;58645;43.068;25.610;2022-09-28T04:47:31;11.80;99.90
70986;DHT22;58645;43.068;25.610;2022-09-28T04:50:04;11.80;99.90
70986;DHT22;58645;43.068;25.610;2022-09-28T04:52:37;11.80;99.90
70986;DHT22;58645;43.068;25.610;2022-09-28T04:55:07;11.70;99.90
70986;DHT22;58645;43.068;25.610;2022-09-28T05:05:12;12.00;99.90
70986;DHT22;58645;43.068;25.610;2022-09-28T05:07:38;12.10;99.90
70986;DHT22;58645;43.068;25.610;2022-09-28T05:10:06;12.40;99.90
70986;DHT22;58645;43.068;25.610;2022-09-28T05:12:32;12.90;99.90
70986;DHT22;58645;43.068;25.610;2022-09-28T05:14:57;13.70;99.90
70986;DHT22;58645;43.068;25.610;2022-09-28T05:17:25;14.70;99.90
70986;DHT22;58645;43.068;25.610;2022-09-28T05:19:53;15.70;99.90
70986;DHT22;58645;43.068;25.610;2022-09-28T05:22:22;16.60;99.90
70986;DHT22;58645;43.068;25.610;2022-09-28T05:24:48;17.00;99.90
70986;DHT22;58645;43.068;25.610;2022-09-28T05:27:21;17.50;99.90
70986;DHT22;58645;43.068;25.610;2022-09-28T05:30:01;18.00;99.90
70986;DHT22;58645;43.068;25.610;2022-09-28T05:33:04;18.70;99.90
70986;DHT22;58645;43.068;25.610;2022-09-28T05:35:35;19.40;99.90
70986;DHT22;58645;43.068;25.610;2022-09-28T05:38:07;19.90;99.90
70986;DHT22;58645;43.068;25.610;2022-09-28T05:45:22;20.70;99.90
70986;DHT22;58645;43.068;25.610;2022-09-28T05:47:48;20.90;99.90
70986;DHT22;58645;43.068;25.610;2022-09-28T05:50:16;21.10;99.90
70986;DHT22;58645;43.068;25.610;2022-09-28T05:52:42;21.40;98.00
70986;DHT22;58645;43.068;25.610;2022-09-28T05:55:09;21.70;97.40
70986;DHT22;58645;43.068;25.610;2022-09-28T05:57:35;21.80;93.70
70986;DHT22;58645;43.068;25.610;2022-09-28T06:00:06;22.00;89.50
70986;DHT22;58645;43.068;25.610;2022-09-28T06:02:34;22.00;86.40
70986;DHT22;58645;43.068;25.610;2022-09-28T06:05:00;22.20;85.20
70986;DHT22;58645;43.068;25.610;2022-09-28T06:07:26;22.60;87.10
70986;DHT22;58645;43.068;25.610;2022-09-28T06:09:51;23.00;84.10
70986;DHT22;58645;43.068;25.610;2022-09-28T06:12:26;23.40;80.30
70986;DHT22;58645;43.068;25.610;2022-09-28T06:14:52;23.50;79.20
70986;DHT22;58645;43.068;25.610;2022-09-28T06:17:18;23.90;78.20
70986;DHT22;58645;43.068;25.610;2022-09-28T06:19:43;24.00;75.10
70986;DHT22;58645;43.068;25.610;2022-09-28T06:22:12;24.40;73.90
70986;DHT22;58645;43.068;25.610;2022-09-28T06:24:38;24.50;72.50
70986;DHT22;58645;43.068;25.610;2022-09-28T06:27:04;24.50;68.80
70986;DHT22;58645;43.068;25.610;2022-09-28T06:29:30;24.70;68.50
70986;DHT22;58645;43.068;25.610;2022-09-28T06:32:03;24.90;69.10
70986;DHT22;58645;43.068;25.610;2022-09-28T06:34:28;25.30;65.50
70986;DHT22;58645;43.068;25.610;2022-09-28T06:36:54;25.60;64.60
70986;DHT22;58645;43.068;25.610;2022-09-28T06:39:20;25.70;61.60
70986;DHT22;58645;43.068;25.610;2022-09-28T06:41:47;26.00;62.10
70986;DHT22;58645;43.068;25.610;2022-09-28T06:44:12;26.20;59.60
70986;DHT22;58645;43.068;25.610;2022-09-28T06:46:38;26.50;59.60
70986;DHT22;58645;43.068;25.610;2022-09-28T06:49:04;27.00;59.00
70986;DHT22;58645;43.068;25.610;2022-09-28T06:51:37;27.50;57.20
70986;DHT22;58645;43.068;25.610;2022-09-28T06:57:00;28.00;55.20
70986;DHT22;58645;43.068;25.610;2022-09-28T06:59:32;28.50;55.00
70986;DHT22;58645;43.068;25.610;2022-09-28T07:02:24;28.70;53.30
70986;DHT22;58645;43.068;25.610;2022-09-28T07:04:52;28.90;52.10
70986;DHT22;58645;43.068;25.610;2022-09-28T07:07:21;29.00;52.30
70986;DHT22;58645;43.068;25.610;2022-09-28T07:09:47;29.10;51.40
70986;DHT22;58645;43.068;25.610;2022-09-28T07:12:21;28.80;51.80
70986;DHT22;58645;43.068;25.610;2022-09-28T07:14:51;29.40;50.20
70986;DHT22;58645;43.068;25.610;2022-09-28T07:17:31;29.40;46.80
70986;DHT22;58645;43.068;25.610;2022-09-28T07:20:01;29.20;48.10
70986;DHT22;58645;43.068;25.610;2022-09-28T07:22:29;29.30;47.90
70986;DHT22;58645;43.068;25.610;2022-09-28T07:24:58;29.70;49.20
70986;DHT22;58645;43.068;25.610;2022-09-28T07:27:27;30.00;49.80
70986;DHT22;58645;43.068;25.610;2022-09-28T07:29:53;30.00;46.20
70986;DHT22;58645;43.068;25.610;2022-09-28T07:32:20;30.40;46.60
70986;DHT22;58645;43.068;25.610;2022-09-28T07:34:46;30.90;45.30
70986;DHT22;58645;43.068;25.610;2022-09-28T07:37:25;30.90;42.90
70986;DHT22;58645;43.068;25.610;2022-09-28T07:39:54;31.00;43.10
70986;DHT22;58645;43.068;25.610;2022-09-28T07:42:38;31.40;43.00
70986;DHT22;58645;43.068;25.610;2022-09-28T07:45:11;31.50;41.20
70986;DHT22;58645;43.068;25.610;2022-09-28T07:47:37;31.60;42.80
70986;DHT22;58645;43.068;25.610;2022-09-28T07:50:03;31.80;41.80
70986;DHT22;58645;43.068;25.610;2022-09-28T07:52:28;31.90;40.20
70986;DHT22;58645;43.068;25.610;2022-09-28T07:54:55;32.50;41.30
70986;DHT22;58645;43.068;25.610;2022-09-28T07:57:21;32.40;41.20
70986;DHT22;58645;43.068;25.610;2022-09-28T07:59:55;32.00;42.10
70986;DHT22;58645;43.068;25.610;2022-09-28T08:02:30;32.20;41.50
70986;DHT22;58645;43.068;25.610;2022-09-28T08:04:59;32.40;40.90
70986;DHT22;58645;43.068;25.610;2022-09-28T08:07:25;32.70;40.40
70986;DHT22;58645;43.068;25.610;2022-09-28T08:09:53;32.70;41.30
70986;DHT22;58645;43.068;25.610;2022-09-28T08:12:20;33.00;39.80
70986;DHT22;58645;43.068;25.610;2022-09-28T08:14:47;33.30;37.10
70986;DHT22;58645;43.068;25.610;2022-09-28T08:17:19;33.20;38.40
70986;DHT22;58645;43.068;25.610;2022-09-28T08:19:44;33.10;38.40
70986;DHT22;58645;43.068;25.610;2022-09-28T08:28:47;32.90;36.60
70986;DHT22;58645;43.068;25.610;2022-09-28T08:31:13;33.40;35.80
70986;DHT22;58645;43.068;25.610;2022-09-28T08:33:46;33.20;35.10
70986;DHT22;58645;43.068;25.610;2022-09-28T08:36:35;32.90;34.40
70986;DHT22;58645;43.068;25.610;2022-09-28T08:39:01;32.40;34.30
70986;DHT22;58645;43.068;25.610;2022-09-28T08:41:32;32.30;35.00
70986;DHT22;58645;43.068;25.610;2022-09-28T08:44:38;32.20;35.50
70986;DHT22;58645;43.068;25.610;2022-09-28T08:47:28;32.20;36.70
70986;DHT22;58645;43.068;25.610;2022-09-28T08:50:18;33.30;34.10
70986;DHT22;58645;43.068;25.610;2022-09-28T08:52:47;32.80;35.80
70986;DHT22;58645;43.068;25.610;2022-09-28T08:58:00;33.20;32.80
70986;DHT22;58645;43.068;25.610;2022-09-28T09:00:34;33.30;31.70
70986;DHT22;58645;43.068;25.610;2022-09-28T09:03:30;33.30;32.40
70986;DHT22;58645;43.068;25.610;2022-09-28T09:06:01;33.60;32.10
70986;DHT22;58645;43.068;25.610;2022-09-28T09:08:44;34.00;31.90
70986;DHT22;58645;43.068;25.610;2022-09-28T09:14:21;34.50;31.90
70986;DHT22;58645;43.068;25.610;2022-09-28T09:28:23;34.60;30.00
70986;DHT22;58645;43.068;25.610;2022-09-28T09:31:25;34.70;28.50
70986;DHT22;58645;43.068;25.610;2022-09-28T09:47:07;35.30;28.30
70986;DHT22;58645;43.068;25.610;2022-09-28T09:49:55;35.20;27.90
70986;DHT22;58645;43.068;25.610;2022-09-28T09:52:57;35.30;29.60
70986;DHT22;58645;43.068;25.610;2022-09-28T09:55:43;35.70;25.70
70986;DHT22;58645;43.068;25.610;2022-09-28T09:58:37;35.90;27.20
70986;DHT22;58645;43.068;25.610;2022-09-28T10:01:13;35.80;27.80
70986;DHT22;58645;43.068;25.610;2022-09-28T10:03:45;35.90;25.40
70986;DHT22;58645;43.068;25.610;2022-09-28T10:06:25;36.00;27.90
70986;DHT22;58645;43.068;25.610;2022-09-28T10:09:09;36.20;26.00
70986;DHT22;58645;43.068;25.610;2022-09-28T10:11:42;36.20;25.40
70986;DHT22;58645;43.068;25.610;2022-09-28T10:14:17;35.70;25.10
70986;DHT22;58645;43.068;25.610;2022-09-28T10:16:47;35.90;25.50
70986;DHT22;58645;43.068;25.610;2022-09-28T10:19:19;36.20;26.10
70986;DHT22;58645;43.068;25.610;2022-09-28T10:21:48;35.60;25.20
70986;DHT22;58645;43.068;25.610;2022-09-28T10:24:34;35.80;24.90
70986;DHT22;58645;43.068;25.610;2022-09-28T10:27:04;36.10;25.60
70986;DHT22;58645;43.068;25.610;2022-09-28T10:29:51;35.90;24.50
70986;DHT22;58645;43.068;25.610;2022-09-28T10:32:35;34.80;25.10
70986;DHT22;58645;43.068;25.610;2022-09-28T10:37:59;34.30;27.30
70986;DHT22;58645;43.068;25.610;2022-09-28T10:51:12;35.50;27.60
70986;DHT22;58645;43.068;25.610;2022-09-28T10:53:39;35.80;25.20
70986;DHT22;58645;43.068;25.610;2022-09-28T10:56:16;35.50;28.30
70986;DHT22;58645;43.068;25.610;2022-09-28T10:58:42;35.70;26.30
70986;DHT22;58645;43.068;25.610;2022-09-28T11:01:11;35.20;26.20
70986;DHT22;58645;43.068;25.610;2022-09-28T11:03:55;35.40;26.30
70986;DHT22;58645;43.068;25.610;2022-09-28T11:09:02;35.80;24.60
70986;DHT22;58645;43.068;25.610;2022-09-28T11:11:29;35.30;25.50
70986;DHT22;58645;43.068;25.610;2022-09-28T11:13:58;35.40;26.80
70986;DHT22;58645;43.068;25.610;2022-09-28T11:16:33;35.70;28.40
70986;DHT22;58645;43.068;25.610;2022-09-28T11:19:26;36.10;26.00
70986;DHT22;58645;43.068;25.610;2022-09-28T11:21:53;35.60;25.10
70986;DHT22;58645;43.068;25.610;2022-09-28T11:24:22;35.70;26.20
70986;DHT22;58645;43.068;25.610;2022-09-28T11:26:53;35.60;25.20
70986;DHT22;58645;43.068;25.610;2022-09-28T11:29:39;35.70;25.50
70986;DHT22;58645;43.068;25.610;2022-09-28T11:32:07;35.90;25.30
70986;DHT22;58645;43.068;25.610;2022-09-28T11:34:42;35.60;24.70
70986;DHT22;58645;43.068;25.610;2022-09-28T11:37:34;35.40;25.60
70986;DHT22;58645;43.068;25.610;2022-09-28T11:46:07;34.50;27.20
70986;DHT22;58645;43.068;25.610;2022-09-28T11:48:51;34.80;26.60
70986;DHT22;58645;43.068;25.610;2022-09-28T11:51:39;35.10;25.60
70986;DHT22;58645;43.068;25.610;2022-09-28T11:54:22;35.20;26.20
70986;DHT22;58645;43.068;25.610;2022-09-28T11:56:51;35.60;24.50
70986;DHT22;58645;43.068;25.610;2022-09-28T11:59:24;35.80;26.10
70986;DHT22;58645;43.068;25.610;2022-09-28T12:07:53;35.40;25.30
70986;DHT22;58645;43.068;25.610;2022-09-28T12:10:44;34.70;24.90
70986;DHT22;58645;43.068;25.610;2022-09-28T12:13:20;34.40;25.70
70986;DHT22;58645;43.068;25.610;2022-09-28T12:16:00;34.20;26.00
70986;DHT22;58645;43.068;25.610;2022-09-28T12:21:27;33.10;27.10
70986;DHT22;58645;43.068;25.610;2022-09-28T12:26:55;33.00;27.90
70986;DHT22;58645;43.068;25.610;2022-09-28T12:29:27;32.90;27.70
70986;DHT22;58645;43.068;25.610;2022-09-28T12:32:08;32.80;28.80
70986;DHT22;58645;43.068;25.610;2022-09-28T12:34:35;32.60;29.70
70986;DHT22;58645;43.068;25.610;2022-09-28T12:56:02;28.90;36.90
70986;DHT22;58645;43.068;25.610;2022-09-28T13:06:35;28.30;38.60
70986;DHT22;58645;43.068;25.610;2022-09-28T13:09:18;28.20;39.20
70986;DHT22;58645;43.068;25.610;2022-09-28T13:17:12;27.90;38.60
70986;DHT22;58645;43.068;25.610;2022-09-28T13:20:07;27.80;38.50
70986;DHT22;58645;43.068;25.610;2022-09-28T13:25:15;27.60;38.80
70986;DHT22;58645;43.068;25.610;2022-09-28T13:27:52;27.60;38.60
70986;DHT22;58645;43.068;25.610;2022-09-28T13:30:19;27.50;39.70
70986;DHT22;58645;43.068;25.610;2022-09-28T13:32:45;27.50;40.50
70986;DHT22;58645;43.068;25.610;2022-09-28T13:35:16;27.50;39.50
70986;DHT22;58645;43.068;25.610;2022-09-28T13:37:46;27.40;39.50
70986;DHT22;58645;43.068;25.610;2022-09-28T13:40:12;27.40;38.70
70986;DHT22;58645;43.068;25.610;2022-09-28T13:53:58;27.30;39.50
70986;DHT22;58645;43.068;25.610;2022-09-28T13:58:56;27.10;39.50
70986;DHT22;58645;43.068;25.610;2022-09-28T14:01:35;26.80;40.30
70986;DHT22;58645;43.068;25.610;2022-09-28T14:04:23;26.80;40.20
70986;DHT22;58645;43.068;25.610;2022-09-28T14:09:41;26.70;39.30
70986;DHT22;58645;43.068;25.610;2022-09-28T14:12:27;26.70;38.30
70986;DHT22;58645;43.068;25.610;2022-09-28T14:14:53;26.70;38.20
70986;DHT22;58645;43.068;25.610;2022-09-28T14:20:06;26.70;38.90
70986;DHT22;58645;43.068;25.610;2022-09-28T14:25:23;26.70;41.60
70986;DHT22;58645;43.068;25.610;2022-09-28T14:35:59;26.40;43.20
70986;DHT22;58645;43.068;25.610;2022-09-28T14:38:46;26.40;42.40
70986;DHT22;58645;43.068;25.610;2022-09-28T14:41:35;26.30;42.40
70986;DHT22;58645;43.068;25.610;2022-09-28T14:44:06;26.30;42.50
70986;DHT22;58645;43.068;25.610;2022-09-28T14:46:43;26.20;43.40
70986;DHT22;58645;43.068;25.610;2022-09-28T14:59:41;25.50;45.30
70986;DHT22;58645;43.068;25.610;2022-09-28T15:04:42;25.30;46.20
70986;DHT22;58645;43.068;25.610;2022-09-28T15:07:21;25.30;46.60
70986;DHT22;58645;43.068;25.610;2022-09-28T15:09:52;25.20;46.60
70986;DHT22;58645;43.068;25.610;2022-09-28T15:12:38;25.10;47.30
70986;DHT22;58645;43.068;25.610;2022-09-28T15:15:23;25.00;47.20
70986;DHT22;58645;43.068;25.610;2022-09-28T15:20:45;24.80;48.60
70986;DHT22;58645;43.068;25.610;2022-09-28T15:23:24;24.80;48.40
70986;DHT22;58645;43.068;25.610;2022-09-28T15:25:52;24.70;48.70
70986;DHT22;58645;43.068;25.610;2022-09-28T15:28:20;24.80;49.20
70986;DHT22;58645;43.068;25.610;2022-09-28T15:30:50;24.70;49.60
70986;DHT22;58645;43.068;25.610;2022-09-28T15:33:27;24.50;49.80
70986;DHT22;58645;43.068;25.610;2022-09-28T15:36:20;24.60;49.90
70986;DHT22;58645;43.068;25.610;2022-09-28T15:38:59;24.50;50.40
70986;DHT22;58645;43.068;25.610;2022-09-28T15:41:26;24.40;51.30
70986;DHT22;58645;43.068;25.610;2022-09-28T15:46:45;24.10;52.50
70986;DHT22;58645;43.068;25.610;2022-09-28T15:49:28;24.00;53.00
70986;DHT22;58645;43.068;25.610;2022-09-28T15:51:56;23.90;53.70
70986;DHT22;58645;43.068;25.610;2022-09-28T15:54:41;23.80;53.60
70986;DHT22;58645;43.068;25.610;2022-09-28T15:57:36;23.70;53.60
70986;DHT22;58645;43.068;25.610;2022-09-28T16:00:22;23.50;53.60
70986;DHT22;58645;43.068;25.610;2022-09-28T16:08:38;23.20;54.40
70986;DHT22;58645;43.068;25.610;2022-09-28T16:14:05;23.00;55.30
70986;DHT22;58645;43.068;25.610;2022-09-28T16:16:46;22.80;56.50
70986;DHT22;58645;43.068;25.610;2022-09-28T16:19:27;22.70;58.10
70986;DHT22;58645;43.068;25.610;2022-09-28T16:21:56;22.50;58.50
70986;DHT22;58645;43.068;25.610;2022-09-28T16:24:30;22.40;59.50
70986;DHT22;58645;43.068;25.610;2022-09-28T16:30:20;22.10;60.60
70986;DHT22;58645;43.068;25.610;2022-09-28T16:33:07;22.00;62.40
70986;DHT22;58645;43.068;25.610;2022-09-28T16:35:50;21.90;61.70
70986;DHT22;58645;43.068;25.610;2022-09-28T16:38:17;21.80;62.20
70986;DHT22;58645;43.068;25.610;2022-09-28T16:40:46;21.70;62.50
70986;DHT22;58645;43.068;25.610;2022-09-28T16:43:28;21.60;64.10
70986;DHT22;58645;43.068;25.610;2022-09-28T16:46:32;21.50;64.30
70986;DHT22;58645;43.068;25.610;2022-09-28T16:48:51;21.40;63.60
70986;DHT22;58645;43.068;25.610;2022-09-28T16:51:19;21.30;66.60
70986;DHT22;58645;43.068;25.610;2022-09-28T16:53:45;21.20;66.60
70986;DHT22;58645;43.068;25.610;2022-09-28T16:56:32;21.20;67.20
70986;DHT22;58645;43.068;25.610;2022-09-28T16:58:58;21.10;64.60
70986;DHT22;58645;43.068;25.610;2022-09-28T17:01:24;21.10;62.70
70986;DHT22;58645;43.068;25.610;2022-09-28T17:03:50;21.20;62.70
70986;DHT22;58645;43.068;25.610;2022-09-28T17:06:21;21.20;66.80
70986;DHT22;58645;43.068;25.610;2022-09-28T17:08:50;21.10;67.60
70986;DHT22;58645;43.068;25.610;2022-09-28T17:11:18;21.10;67.70
70986;DHT22;58645;43.068;25.610;2022-09-28T17:13:45;21.10;66.50
70986;DHT22;58645;43.068;25.610;2022-09-28T17:16:13;21.10;67.30
70986;DHT22;58645;43.068;25.610;2022-09-28T17:18:39;21.00;68.10
70986;DHT22;58645;43.068;25.610;2022-09-28T17:21:09;21.00;68.30
70986;DHT22;58645;43.068;25.610;2022-09-28T17:23:35;20.90;68.50
70986;DHT22;58645;43.068;25.610;2022-09-28T17:26:02;20.90;68.50
70986;DHT22;58645;43.068;25.610;2022-09-28T17:28:33;20.90;69.10
70986;DHT22;58645;43.068;25.610;2022-09-28T17:30:59;20.90;67.90
70986;DHT22;58645;43.068;25.610;2022-09-28T17:33:25;20.80;66.10
70986;DHT22;58645;43.068;25.610;2022-09-28T17:35:52;20.70;70.60
70986;DHT22;58645;43.068;25.610;2022-09-28T17:38:21;20.60;70.50
70986;DHT22;58645;43.068;25.610;2022-09-28T17:40:47;20.60;71.90
70986;DHT22;58645;43.068;25.610;2022-09-28T17:43:13;20.50;71.90
70986;DHT22;58645;43.068;25.610;2022-09-28T17:45:39;20.40;70.80
70986;DHT22;58645;43.068;25.610;2022-09-28T17:48:14;20.40;70.10
70986;DHT22;58645;43.068;25.610;2022-09-28T17:50:40;20.40;70.50
70986;DHT22;58645;43.068;25.610;2022-09-28T17:53:08;20.30;71.60
70986;DHT22;58645;43.068;25.610;2022-09-28T17:55:35;20.20;71.80
70986;DHT22;58645;43.068;25.610;2022-09-28T18:00:45;20.10;73.00
70986;DHT22;58645;43.068;25.610;2022-09-28T18:03:19;20.10;73.30
70986;DHT22;58645;43.068;25.610;2022-09-28T18:05:47;20.10;73.80
70986;DHT22;58645;43.068;25.610;2022-09-28T18:08:19;20.00;73.70
70986;DHT22;58645;43.068;25.610;2022-09-28T18:10:45;20.00;70.50
70986;DHT22;58645;43.068;25.610;2022-09-28T18:13:12;20.00;73.10
70986;DHT22;58645;43.068;25.610;2022-09-28T18:15:38;20.10;71.30
70986;DHT22;58645;43.068;25.610;2022-09-28T18:18:04;20.10;74.00
70986;DHT22;58645;43.068;25.610;2022-09-28T18:20:30;20.00;73.80
70986;DHT22;58645;43.068;25.610;2022-09-28T18:22:56;20.00;74.50
70986;DHT22;58645;43.068;25.610;2022-09-28T18:25:21;19.90;75.00
70986;DHT22;58645;43.068;25.610;2022-09-28T18:27:47;19.90;75.00
70986;DHT22;58645;43.068;25.610;2022-09-28T18:30:13;19.80;75.60
70986;DHT22;58645;43.068;25.610;2022-09-28T18:32:39;19.80;75.10
70986;DHT22;58645;43.068;25.610;2022-09-28T18:35:07;19.70;75.80
70986;DHT22;58645;43.068;25.610;2022-09-28T18:37:37;19.80;75.50
70986;DHT22;58645;43.068;25.610;2022-09-28T18:40:04;19.70;74.60
70986;DHT22;58645;43.068;25.610;2022-09-28T18:42:30;19.60;73.80
70986;DHT22;58645;43.068;25.610;2022-09-28T18:44:57;19.50;73.60
70986;DHT22;58645;43.068;25.610;2022-09-28T18:47:23;19.40;74.10
70986;DHT22;58645;43.068;25.610;2022-09-28T18:49:49;19.40;74.90
70986;DHT22;58645;43.068;25.610;2022-09-28T18:52:15;19.30;75.20
70986;DHT22;58645;43.068;25.610;2022-09-28T18:54:41;19.20;75.20
70986;DHT22;58645;43.068;25.610;2022-09-28T18:57:07;19.20;75.20
70986;DHT22;58645;43.068;25.610;2022-09-28T18:59:33;19.20;75.00
70986;DHT22;58645;43.068;25.610;2022-09-28T19:01:58;19.10;75.70
70986;DHT22;58645;43.068;25.610;2022-09-28T19:04:26;19.10;76.50
70986;DHT22;58645;43.068;25.610;2022-09-28T19:06:51;19.10;77.80
70986;DHT22;58645;43.068;25.610;2022-09-28T19:09:20;19.00;79.70
70986;DHT22;58645;43.068;25.610;2022-09-28T19:11:47;19.00;80.50
70986;DHT22;58645;43.068;25.610;2022-09-28T19:14:13;18.90;80.80
70986;DHT22;58645;43.068;25.610;2022-09-28T19:16:41;18.90;80.50
70986;DHT22;58645;43.068;25.610;2022-09-28T19:19:09;18.80;79.10
70986;DHT22;58645;43.068;25.610;2022-09-28T19:21:37;18.80;78.50
70986;DHT22;58645;43.068;25.610;2022-09-28T19:24:04;18.90;78.80
70986;DHT22;58645;43.068;25.610;2022-09-28T19:26:30;18.90;78.90